Terminal Aerodrome Forecast
Issued by NWS Cleveland, OH

Home | Current Version | Previous Version | Text Only | Print | Product List | Glossary Off
Versions: 1 2 3 4 5 6 7 8 9 10 11 12

889
FTUS41 KCLE 211140
TAFMFD
TAF
KMFD 211140Z 2112/2212 26007KT P6SM BKN035
     FM211400 27012G20KT P6SM OVC025
     FM211900 28012G22KT P6SM BKN035
     FM212300 32007KT P6SM BKN035
     FM220700 36007KT P6SM OVC030=

USA.gov is the U.S. government's official web portal to all federal, state and local government web resources and services.